sensor_id;sensor_type;location;lat;lon;timestamp;pressure;altitude;pressure_sealevel;temperature
69785;BMP280;14177;51.520;6.764;2023-11-18T00:00:02;102251.06;;;2.56
69785;BMP280;14177;51.520;6.764;2023-11-18T00:02:38;102250.22;;;2.57
69785;BMP280;14177;51.520;6.764;2023-11-18T00:05:06;102241.72;;;2.58
69785;BMP280;14177;51.520;6.764;2023-11-18T00:07:34;102252.94;;;2.63
69785;BMP280;14177;51.520;6.764;2023-11-18T00:10:02;102252.97;;;2.64
69785;BMP280;14177;51.520;6.764;2023-11-18T00:12:30;102253.81;;;2.63
69785;BMP280;14177;51.520;6.764;2023-11-18T00:14:57;102258.03;;;2.61
69785;BMP280;14177;51.520;6.764;2023-11-18T00:17:24;102255.50;;;2.63
69785;BMP280;14177;51.520;6.764;2023-11-18T00:19:51;102253.03;;;2.67
69785;BMP280;14177;51.520;6.764;2023-11-18T00:22:18;102246.31;;;2.72
69785;BMP280;14177;51.520;6.764;2023-11-18T00:24:45;102245.41;;;2.70
69785;BMP280;14177;51.520;6.764;2023-11-18T00:27:12;102253.16;;;2.72
69785;BMP280;14177;51.520;6.764;2023-11-18T00:29:40;102247.09;;;2.68
69785;BMP280;14177;51.520;6.764;2023-11-18T00:32:07;102241.84;;;2.64
69785;BMP280;14177;51.520;6.764;2023-11-18T00:34:35;102243.44;;;2.59
69785;BMP280;14177;51.520;6.764;2023-11-18T00:37:02;102236.56;;;2.58
69785;BMP280;14177;51.520;6.764;2023-11-18T00:39:29;102242.47;;;2.54
69785;BMP280;14177;51.520;6.764;2023-11-18T00:41:55;102238.09;;;2.50
69785;BMP280;14177;51.520;6.764;2023-11-18T00:44:23;102241.47;;;2.49
69785;BMP280;14177;51.520;6.764;2023-11-18T00:46:50;102237.09;;;2.45
69785;BMP280;14177;51.520;6.764;2023-11-18T00:49:17;102236.25;;;2.44
69785;BMP280;14177;51.520;6.764;2023-11-18T00:51:44;102238.75;;;2.41
69785;BMP280;14177;51.520;6.764;2023-11-18T00:54:11;102238.75;;;2.41
69785;BMP280;14177;51.520;6.764;2023-11-18T00:56:39;102233.63;;;2.41
69785;BMP280;14177;51.520;6.764;2023-11-18T00:59:06;102226.75;;;2.40
69785;BMP280;14177;51.520;6.764;2023-11-18T01:01:33;102225.84;;;2.40
69785;BMP280;14177;51.520;6.764;2023-11-18T01:04:01;102235.28;;;2.39
69785;BMP280;14177;51.520;6.764;2023-11-18T01:06:29;102229.34;;;2.42
69785;BMP280;14177;51.520;6.764;2023-11-18T01:08:56;102230.31;;;2.47
69785;BMP280;14177;51.520;6.764;2023-11-18T01:11:23;102237.25;;;2.51
69785;BMP280;14177;51.520;6.764;2023-11-18T01:13:51;102230.44;;;2.51
69785;BMP280;14177;51.520;6.764;2023-11-18T01:16:18;102234.91;;;2.60
69785;BMP280;14177;51.520;6.764;2023-11-18T01:18:46;102238.47;;;2.65
69785;BMP280;14177;51.520;6.764;2023-11-18T01:21:13;102239.34;;;2.67
69785;BMP280;14177;51.520;6.764;2023-11-18T01:23:44;102241.94;;;2.67
69785;BMP280;14177;51.520;6.764;2023-11-18T01:26:12;102241.03;;;2.65
69785;BMP280;14177;51.520;6.764;2023-11-18T01:28:39;102253.03;;;2.66
69785;BMP280;14177;51.520;6.764;2023-11-18T01:31:10;102259.91;;;2.68
69785;BMP280;14177;51.520;6.764;2023-11-18T01:33:39;102266.84;;;2.72
69785;BMP280;14177;51.520;6.764;2023-11-18T01:36:10;102272.13;;;2.78
69785;BMP280;14177;51.520;6.764;2023-11-18T01:38:38;102271.22;;;2.75
69785;BMP280;14177;51.520;6.764;2023-11-18T01:41:06;102269.47;;;2.74
69785;BMP280;14177;51.520;6.764;2023-11-18T01:43:34;102268.56;;;2.72
69785;BMP280;14177;51.520;6.764;2023-11-18T01:46:08;102267.75;;;2.73
69785;BMP280;14177;51.520;6.764;2023-11-18T01:48:39;102265.25;;;2.76
69785;BMP280;14177;51.520;6.764;2023-11-18T01:51:07;102262.00;;;2.84
69785;BMP280;14177;51.520;6.764;2023-11-18T01:53:37;102262.16;;;2.90
69785;BMP280;14177;51.520;6.764;2023-11-18T01:56:07;102255.50;;;2.98
69785;BMP280;14177;51.520;6.764;2023-11-18T01:58:36;102248.78;;;3.03
69785;BMP280;14177;51.520;6.764;2023-11-18T02:01:04;102249.69;;;3.07
69785;BMP280;14177;51.520;6.764;2023-11-18T02:03:35;102250.66;;;3.12
69785;BMP280;14177;51.520;6.764;2023-11-18T02:06:04;102259.41;;;3.20
69785;BMP280;14177;51.520;6.764;2023-11-18T02:08:33;102258.72;;;3.27
69785;BMP280;14177;51.520;6.764;2023-11-18T02:11:20;102254.56;;;3.33
69785;BMP280;14177;51.520;6.764;2023-11-18T02:13:54;102261.66;;;3.45
69785;BMP280;14177;51.520;6.764;2023-11-18T02:16:26;102260.16;;;3.54
69785;BMP280;14177;51.520;6.764;2023-11-18T02:18:54;102247.41;;;3.58
69785;BMP280;14177;51.520;6.764;2023-11-18T02:21:22;102238.94;;;3.65
69785;BMP280;14177;51.520;6.764;2023-11-18T02:23:50;102235.72;;;3.74
69785;BMP280;14177;51.520;6.764;2023-11-18T02:26:23;102227.28;;;3.82
69785;BMP280;14177;51.520;6.764;2023-11-18T02:28:51;102213.66;;;3.86
69785;BMP280;14177;51.520;6.764;2023-11-18T02:31:33;102229.16;;;3.89
69785;BMP280;14177;51.520;6.764;2023-11-18T02:34:16;102231.00;;;3.96
69785;BMP280;14177;51.520;6.764;2023-11-18T02:36:50;102221.66;;;4.03
69785;BMP280;14177;51.520;6.764;2023-11-18T02:39:42;102226.84;;;4.04
69785;BMP280;14177;51.520;6.764;2023-11-18T02:42:12;102221.72;;;4.06
69785;BMP280;14177;51.520;6.764;2023-11-18T02:44:40;102228.59;;;4.05
69785;BMP280;14177;51.520;6.764;2023-11-18T02:47:08;102232.91;;;4.06
69785;BMP280;14177;51.520;6.764;2023-11-18T02:49:37;102232.91;;;4.06
69785;BMP280;14177;51.520;6.764;2023-11-18T02:52:04;102239.78;;;4.07
69785;BMP280;14177;51.520;6.764;2023-11-18T02:54:32;102244.94;;;4.09
69785;BMP280;14177;51.520;6.764;2023-11-18T02:56:59;102247.56;;;4.12
69785;BMP280;14177;51.520;6.764;2023-11-18T02:59:26;102244.19;;;4.14
69785;BMP280;14177;51.520;6.764;2023-11-18T03:01:56;102234.78;;;4.16
69785;BMP280;14177;51.520;6.764;2023-11-18T03:04:24;102227.09;;;4.16
69785;BMP280;14177;51.520;6.764;2023-11-18T03:06:51;102226.25;;;4.17
69785;BMP280;14177;51.520;6.764;2023-11-18T03:09:18;102214.22;;;4.16
69785;BMP280;14177;51.520;6.764;2023-11-18T03:11:46;102215.94;;;4.17
69785;BMP280;14177;51.520;6.764;2023-11-18T03:14:13;102213.34;;;4.16
69785;BMP280;14177;51.520;6.764;2023-11-18T03:16:41;102212.47;;;4.15
69785;BMP280;14177;51.520;6.764;2023-11-18T03:19:08;102204.81;;;4.18
69785;BMP280;14177;51.520;6.764;2023-11-18T03:21:35;102211.72;;;4.21
69785;BMP280;14177;51.520;6.764;2023-11-18T03:24:03;102198.84;;;4.19
69785;BMP280;14177;51.520;6.764;2023-11-18T03:26:30;102193.69;;;4.19
69785;BMP280;14177;51.520;6.764;2023-11-18T03:28:59;102198.00;;;4.22
69785;BMP280;14177;51.520;6.764;2023-11-18T03:31:26;102193.75;;;4.22
69785;BMP280;14177;51.520;6.764;2023-11-18T03:33:53;102198.88;;;4.22
69785;BMP280;14177;51.520;6.764;2023-11-18T03:36:20;102193.75;;;4.22
69785;BMP280;14177;51.520;6.764;2023-11-18T03:38:47;102198.00;;;4.22
69785;BMP280;14177;51.520;6.764;2023-11-18T03:41:16;102195.44;;;4.22
69785;BMP280;14177;51.520;6.764;2023-11-18T03:43:43;102199.69;;;4.20
69785;BMP280;14177;51.520;6.764;2023-11-18T03:46:11;102205.72;;;4.20
69785;BMP280;14177;51.520;6.764;2023-11-18T03:48:38;102203.16;;;4.22
69785;BMP280;14177;51.520;6.764;2023-11-18T03:51:05;102227.19;;;4.22
69785;BMP280;14177;51.520;6.764;2023-11-18T03:53:32;102224.63;;;4.22
69785;BMP280;14177;51.520;6.764;2023-11-18T03:56:00;102227.19;;;4.24
69785;BMP280;14177;51.520;6.764;2023-11-18T03:58:29;102210.91;;;4.23
69785;BMP280;14177;51.520;6.764;2023-11-18T04:00:56;102221.22;;;4.25
69785;BMP280;14177;51.520;6.764;2023-11-18T04:03:24;102228.09;;;4.24
69785;BMP280;14177;51.520;6.764;2023-11-18T04:05:51;102224.72;;;4.30
69785;BMP280;14177;51.520;6.764;2023-11-18T04:08:18;102218.75;;;4.29
69785;BMP280;14177;51.520;6.764;2023-11-18T04:10:45;102218.75;;;4.29
69785;BMP280;14177;51.520;6.764;2023-11-18T04:13:12;102217.91;;;4.30
69785;BMP280;14177;51.520;6.764;2023-11-18T04:15:39;102211.06;;;4.32
69785;BMP280;14177;51.520;6.764;2023-11-18T04:18:06;102217.00;;;4.30
69785;BMP280;14177;51.520;6.764;2023-11-18T04:20:33;102213.63;;;4.32
69785;BMP280;14177;51.520;6.764;2023-11-18T04:23:00;102207.63;;;4.32
69785;BMP280;14177;51.520;6.764;2023-11-18T04:25:28;102199.94;;;4.33
69785;BMP280;14177;51.520;6.764;2023-11-18T04:27:55;102195.63;;;4.32
69785;BMP280;14177;51.520;6.764;2023-11-18T04:30:21;102178.47;;;4.31
69785;BMP280;14177;51.520;6.764;2023-11-18T04:32:48;102173.31;;;4.31
69785;BMP280;14177;51.520;6.764;2023-11-18T04:35:19;102163.81;;;4.29
69785;BMP280;14177;51.520;6.764;2023-11-18T04:37:49;102151.78;;;4.26
69785;BMP280;14177;51.520;6.764;2023-11-18T04:40:16;102150.91;;;4.26
69785;BMP280;14177;51.520;6.764;2023-11-18T04:42:43;102145.75;;;4.24
69785;BMP280;14177;51.520;6.764;2023-11-18T04:45:11;102138.00;;;4.23
69785;BMP280;14177;51.520;6.764;2023-11-18T04:47:38;102135.38;;;4.20
69785;BMP280;14177;51.520;6.764;2023-11-18T04:50:06;102143.09;;;4.20
69785;BMP280;14177;51.520;6.764;2023-11-18T04:52:35;102134.47;;;4.18
69785;BMP280;14177;51.520;6.764;2023-11-18T04:55:04;102137.06;;;4.18
69785;BMP280;14177;51.520;6.764;2023-11-18T04:57:32;102126.75;;;4.18
69785;BMP280;14177;51.520;6.764;2023-11-18T05:00:02;102122.50;;;4.18
69785;BMP280;14177;51.520;6.764;2023-11-18T05:02:40;102122.56;;;4.21
69785;BMP280;14177;51.520;6.764;2023-11-18T05:05:08;102123.44;;;4.23
69785;BMP280;14177;51.520;6.764;2023-11-18T05:07:35;102109.72;;;4.24
69785;BMP280;14177;51.520;6.764;2023-11-18T05:10:03;102120.03;;;4.24
69785;BMP280;14177;51.520;6.764;2023-11-18T05:12:30;102102.91;;;4.26
69785;BMP280;14177;51.520;6.764;2023-11-18T05:14:57;102105.50;;;4.28
69785;BMP280;14177;51.520;6.764;2023-11-18T05:17:24;102105.53;;;4.29
69785;BMP280;14177;51.520;6.764;2023-11-18T05:19:53;102096.09;;;4.30
69785;BMP280;14177;51.520;6.764;2023-11-18T05:22:20;102092.66;;;4.29
69785;BMP280;14177;51.520;6.764;2023-11-18T05:24:48;102098.69;;;4.33
69785;BMP280;14177;51.520;6.764;2023-11-18T05:27:15;102097.91;;;4.35
69785;BMP280;14177;51.520;6.764;2023-11-18T05:29:44;102094.47;;;4.36
69785;BMP280;14177;51.520;6.764;2023-11-18T05:32:23;102091.03;;;4.37
69785;BMP280;14177;51.520;6.764;2023-11-18T05:34:52;102090.25;;;4.41
69785;BMP280;14177;51.520;6.764;2023-11-18T05:37:21;102094.53;;;4.42
69785;BMP280;14177;51.520;6.764;2023-11-18T05:39:50;102098.06;;;4.47
69785;BMP280;14177;51.520;6.764;2023-11-18T05:42:26;102098.94;;;4.49
69785;BMP280;14177;51.520;6.764;2023-11-18T05:44:56;102101.50;;;4.49
69785;BMP280;14177;51.520;6.764;2023-11-18T05:47:26;102109.28;;;4.52
69785;BMP280;14177;51.520;6.764;2023-11-18T05:49:54;102107.59;;;4.54
69785;BMP280;14177;51.520;6.764;2023-11-18T05:52:22;102094.72;;;4.53
69785;BMP280;14177;51.520;6.764;2023-11-18T05:54:49;102099.03;;;4.54
69785;BMP280;14177;51.520;6.764;2023-11-18T05:57:18;102081.84;;;4.54
69785;BMP280;14177;51.520;6.764;2023-11-18T05:59:45;102082.75;;;4.56
69785;BMP280;14177;51.520;6.764;2023-11-18T06:02:15;102077.63;;;4.59
69785;BMP280;14177;51.520;6.764;2023-11-18T06:04:45;102077.66;;;4.61
69785;BMP280;14177;51.520;6.764;2023-11-18T06:07:12;102063.97;;;4.63
69785;BMP280;14177;51.520;6.764;2023-11-18T06:09:41;102072.56;;;4.65
69785;BMP280;14177;51.520;6.764;2023-11-18T06:12:08;102070.03;;;4.67
69785;BMP280;14177;51.520;6.764;2023-11-18T06:14:37;102062.34;;;4.71
69785;BMP280;14177;51.520;6.764;2023-11-18T06:17:05;102053.78;;;4.72
69785;BMP280;14177;51.520;6.764;2023-11-18T06:19:35;102046.94;;;4.74
69785;BMP280;14177;51.520;6.764;2023-11-18T06:22:02;102047.78;;;4.74
69785;BMP280;14177;51.520;6.764;2023-11-18T06:24:29;102045.25;;;4.77
69785;BMP280;14177;51.520;6.764;2023-11-18T06:26:56;102046.13;;;4.79
69785;BMP280;14177;51.520;6.764;2023-11-18T06:29:23;102053.91;;;4.81
69785;BMP280;14177;51.520;6.764;2023-11-18T06:31:50;102053.94;;;4.84
69785;BMP280;14177;51.520;6.764;2023-11-18T06:34:17;102050.50;;;4.85
69785;BMP280;14177;51.520;6.764;2023-11-18T06:36:47;102056.50;;;4.85
69785;BMP280;14177;51.520;6.764;2023-11-18T06:39:14;102052.25;;;4.86
69785;BMP280;14177;51.520;6.764;2023-11-18T06:41:43;102052.25;;;4.87
69785;BMP280;14177;51.520;6.764;2023-11-18T06:44:15;102045.41;;;4.89
69785;BMP280;14177;51.520;6.764;2023-11-18T06:46:45;102043.72;;;4.91
69785;BMP280;14177;51.520;6.764;2023-11-18T06:49:12;102043.75;;;4.93
69785;BMP280;14177;51.520;6.764;2023-11-18T06:51:42;102043.72;;;4.91
69785;BMP280;14177;51.520;6.764;2023-11-18T06:54:09;102062.63;;;4.93
69785;BMP280;14177;51.520;6.764;2023-11-18T06:56:42;102060.97;;;4.97
69785;BMP280;14177;51.520;6.764;2023-11-18T06:59:12;102061.00;;;5.00
69785;BMP280;14177;51.520;6.764;2023-11-18T07:01:41;102056.75;;;5.02
69785;BMP280;14177;51.520;6.764;2023-11-18T07:04:13;102061.94;;;5.06
69785;BMP280;14177;51.520;6.764;2023-11-18T07:06:42;102063.69;;;5.09
69785;BMP280;14177;51.520;6.764;2023-11-18T07:09:10;102061.97;;;5.09
69785;BMP280;14177;51.520;6.764;2023-11-18T07:11:41;102071.41;;;5.12
69785;BMP280;14177;51.520;6.764;2023-11-18T07:14:09;102065.50;;;5.17
69785;BMP280;14177;51.520;6.764;2023-11-18T07:16:41;102063.75;;;5.18
69785;BMP280;14177;51.520;6.764;2023-11-18T07:19:09;102068.94;;;5.21
69785;BMP280;14177;51.520;6.764;2023-11-18T07:21:48;102078.47;;;5.26
69785;BMP280;14177;51.520;6.764;2023-11-18T07:24:16;102076.75;;;5.27
69785;BMP280;14177;51.520;6.764;2023-11-18T07:26:44;102084.50;;;5.30
69785;BMP280;14177;51.520;6.764;2023-11-18T07:29:12;102077.66;;;5.30
69785;BMP280;14177;51.520;6.764;2023-11-18T07:31:39;102075.09;;;5.32
69785;BMP280;14177;51.520;6.764;2023-11-18T07:34:06;102063.06;;;5.34
69785;BMP280;14177;51.520;6.764;2023-11-18T07:36:33;102054.53;;;5.38
69785;BMP280;14177;51.520;6.764;2023-11-18T07:39:01;102051.13;;;5.42
69785;BMP280;14177;51.520;6.764;2023-11-18T07:41:31;102046.91;;;5.45
69785;BMP280;14177;51.520;6.764;2023-11-18T07:44:00;102040.88;;;5.48
69785;BMP280;14177;51.520;6.764;2023-11-18T07:46:27;102046.06;;;5.51
69785;BMP280;14177;51.520;6.764;2023-11-18T07:48:57;102035.75;;;5.52
69785;BMP280;14177;51.520;6.764;2023-11-18T07:51:24;102040.06;;;5.53
69785;BMP280;14177;51.520;6.764;2023-11-18T07:53:52;102050.44;;;5.58
69785;BMP280;14177;51.520;6.764;2023-11-18T07:56:22;102029.81;;;5.59
69785;BMP280;14177;51.520;6.764;2023-11-18T07:58:50;102029.00;;;5.62
69785;BMP280;14177;51.520;6.764;2023-11-18T08:01:19;102023.84;;;5.63
69785;BMP280;14177;51.520;6.764;2023-11-18T08:03:47;102032.44;;;5.64
69785;BMP280;14177;51.520;6.764;2023-11-18T08:06:15;102034.19;;;5.68
69785;BMP280;14177;51.520;6.764;2023-11-18T08:08:41;102042.81;;;5.70
69785;BMP280;14177;51.520;6.764;2023-11-18T08:11:11;102045.38;;;5.71
69785;BMP280;14177;51.520;6.764;2023-11-18T08:13:39;102048.88;;;5.75
69785;BMP280;14177;51.520;6.764;2023-11-18T08:16:07;102048.94;;;5.78
69785;BMP280;14177;51.520;6.764;2023-11-18T08:18:35;102055.81;;;5.80
69785;BMP280;14177;51.520;6.764;2023-11-18T08:21:03;102053.28;;;5.82
69785;BMP280;14177;51.520;6.764;2023-11-18T08:23:34;102052.41;;;5.84
69785;BMP280;14177;51.520;6.764;2023-11-18T08:26:01;102049.00;;;5.88
69785;BMP280;14177;51.520;6.764;2023-11-18T08:28:28;102046.44;;;5.90
69785;BMP280;14177;51.520;6.764;2023-11-18T08:30:55;102044.72;;;5.92
69785;BMP280;14177;51.520;6.764;2023-11-18T08:33:22;102048.19;;;5.94
69785;BMP280;14177;51.520;6.764;2023-11-18T08:35:51;102049.94;;;5.96
69785;BMP280;14177;51.520;6.764;2023-11-18T08:38:18;102043.91;;;5.97
69785;BMP280;14177;51.520;6.764;2023-11-18T08:40:46;102043.09;;;6.02
69785;BMP280;14177;51.520;6.764;2023-11-18T08:43:15;102048.28;;;6.05
69785;BMP280;14177;51.520;6.764;2023-11-18T08:45:43;102047.41;;;6.06
69785;BMP280;14177;51.520;6.764;2023-11-18T08:48:10;102032.00;;;6.11
69785;BMP280;14177;51.520;6.764;2023-11-18T08:50:38;102032.84;;;6.14
69785;BMP280;14177;51.520;6.764;2023-11-18T08:53:09;102035.44;;;6.14
69785;BMP280;14177;51.520;6.764;2023-11-18T08:55:39;102023.41;;;6.16
69785;BMP280;14177;51.520;6.764;2023-11-18T08:58:12;102024.28;;;6.18
69785;BMP280;14177;51.520;6.764;2023-11-18T09:00:54;102017.41;;;6.19
69785;BMP280;14177;51.520;6.764;2023-11-18T09:03:25;102016.53;;;6.20
69785;BMP280;14177;51.520;6.764;2023-11-18T09:06:06;102013.97;;;6.21
69785;BMP280;14177;51.520;6.764;2023-11-18T09:08:47;102015.72;;;6.22
69785;BMP280;14177;51.520;6.764;2023-11-18T09:11:21;102004.53;;;6.23
69785;BMP280;14177;51.520;6.764;2023-11-18T09:13:51;101989.91;;;6.25
69785;BMP280;14177;51.520;6.764;2023-11-18T09:16:24;101988.22;;;6.27
69785;BMP280;14177;51.520;6.764;2023-11-18T09:18:57;101987.38;;;6.31
69785;BMP280;14177;51.520;6.764;2023-11-18T09:21:30;101967.59;;;6.33
69785;BMP280;14177;51.520;6.764;2023-11-18T09:23:59;101966.75;;;6.39
69785;BMP280;14177;51.520;6.764;2023-11-18T09:26:26;101969.34;;;6.40
69785;BMP280;14177;51.520;6.764;2023-11-18T09:28:57;101965.03;;;6.44
69785;BMP280;14177;51.520;6.764;2023-11-18T09:31:25;101965.06;;;6.50
69785;BMP280;14177;51.520;6.764;2023-11-18T09:33:52;101972.00;;;6.55
69785;BMP280;14177;51.520;6.764;2023-11-18T09:36:20;101976.28;;;6.59
69785;BMP280;14177;51.520;6.764;2023-11-18T09:38:48;101972.00;;;6.63
69785;BMP280;14177;51.520;6.764;2023-11-18T09:41:16;101971.16;;;6.65
69785;BMP280;14177;51.520;6.764;2023-11-18T09:43:45;101979.78;;;6.69
69785;BMP280;14177;51.520;6.764;2023-11-18T09:46:16;101974.63;;;6.73
69785;BMP280;14177;51.520;6.764;2023-11-18T09:48:49;101976.38;;;6.77
69785;BMP280;14177;51.520;6.764;2023-11-18T09:51:26;101971.22;;;6.80
69785;BMP280;14177;51.520;6.764;2023-11-18T09:54:00;101969.50;;;6.82
69785;BMP280;14177;51.520;6.764;2023-11-18T10:02:04;101951.41;;;6.93
69785;BMP280;14177;51.520;6.764;2023-11-18T10:04:33;101961.78;;;6.97
69785;BMP280;14177;51.520;6.764;2023-11-18T10:07:02;101951.47;;;7.03
69785;BMP280;14177;51.520;6.764;2023-11-18T10:09:29;101949.75;;;7.08
69785;BMP280;14177;51.520;6.764;2023-11-18T10:12:04;101937.69;;;7.15
69785;BMP280;14177;51.520;6.764;2023-11-18T10:14:35;101933.41;;;7.18
69785;BMP280;14177;51.520;6.764;2023-11-18T10:17:07;101923.91;;;7.20
69785;BMP280;14177;51.520;6.764;2023-11-18T10:19:53;101919.63;;;7.25
69785;BMP280;14177;51.520;6.764;2023-11-18T10:22:29;101913.56;;;7.29
69785;BMP280;14177;51.520;6.764;2023-11-18T10:24:57;101905.81;;;7.32
69785;BMP280;14177;51.520;6.764;2023-11-18T10:27:27;101889.44;;;7.37
69785;BMP280;14177;51.520;6.764;2023-11-18T10:30:05;101879.97;;;7.42
69785;BMP280;14177;51.520;6.764;2023-11-18T10:33:01;101878.22;;;7.47
69785;BMP280;14177;51.520;6.764;2023-11-18T10:35:34;101881.66;;;7.48
69785;BMP280;14177;51.520;6.764;2023-11-18T10:38:04;101880.81;;;7.50
69785;BMP280;14177;51.520;6.764;2023-11-18T10:40:32;101888.56;;;7.55
69785;BMP280;14177;51.520;6.764;2023-11-18T10:43:04;101867.88;;;7.55
69785;BMP280;14177;51.520;6.764;2023-11-18T10:45:37;101862.69;;;7.58
69785;BMP280;14177;51.520;6.764;2023-11-18T10:48:11;101854.06;;;7.59
69785;BMP280;14177;51.520;6.764;2023-11-18T10:50:47;101844.59;;;7.61
69785;BMP280;14177;51.520;6.764;2023-11-18T10:53:18;101841.16;;;7.60
69785;BMP280;14177;51.520;6.764;2023-11-18T10:55:45;101829.06;;;7.61
69785;BMP280;14177;51.520;6.764;2023-11-18T10:58:12;101842.88;;;7.61
69785;BMP280;14177;51.520;6.764;2023-11-18T11:00:52;101825.63;;;7.60
69785;BMP280;14177;51.520;6.764;2023-11-18T11:03:27;101821.28;;;7.64
69785;BMP280;14177;51.520;6.764;2023-11-18T11:06:00;101820.44;;;7.65
69785;BMP280;14177;51.520;6.764;2023-11-18T11:08:44;101805.78;;;7.67
69785;BMP280;14177;51.520;6.764;2023-11-18T11:11:11;101809.19;;;7.67
69785;BMP280;14177;51.520;6.764;2023-11-18T11:13:45;101816.94;;;7.70
69785;BMP280;14177;51.520;6.764;2023-11-18T11:16:19;101814.38;;;7.72
69785;BMP280;14177;51.520;6.764;2023-11-18T11:18:55;101814.38;;;7.75
69785;BMP280;14177;51.520;6.764;2023-11-18T11:21:26;101823.84;;;7.79
69785;BMP280;14177;51.520;6.764;2023-11-18T11:24:11;101836.78;;;7.82
69785;BMP280;14177;51.520;6.764;2023-11-18T11:27:17;101829.88;;;7.84
69785;BMP280;14177;51.520;6.764;2023-11-18T11:30:01;101834.16;;;7.85
69785;BMP280;14177;51.520;6.764;2023-11-18T11:32:50;101831.56;;;7.88
69785;BMP280;14177;51.520;6.764;2023-11-18T11:35:24;101833.28;;;7.90
69785;BMP280;14177;51.520;6.764;2023-11-18T11:37:56;101817.78;;;7.89
69785;BMP280;14177;51.520;6.764;2023-11-18T11:40:35;101810.00;;;7.89
69785;BMP280;14177;51.520;6.764;2023-11-18T11:43:08;101808.25;;;7.89
69785;BMP280;14177;51.520;6.764;2023-11-18T11:45:37;101821.22;;;7.91
69785;BMP280;14177;51.520;6.764;2023-11-18T11:48:07;101816.03;;;7.91
69785;BMP280;14177;51.520;6.764;2023-11-18T11:53:36;101794.47;;;7.95
69785;BMP280;14177;51.520;6.764;2023-11-18T11:56:12;101804.81;;;7.95
69785;BMP280;14177;51.520;6.764;2023-11-18T11:58:50;101807.41;;;7.95
69785;BMP280;14177;51.520;6.764;2023-11-18T12:01:36;101818.59;;;7.97
69785;BMP280;14177;51.520;6.764;2023-11-18T12:04:08;101810.84;;;7.97
69785;BMP280;14177;51.520;6.764;2023-11-18T12:06:42;101809.94;;;7.99
69785;BMP280;14177;51.520;6.764;2023-11-18T12:09:11;101782.34;;;7.98
69785;BMP280;14177;51.520;6.764;2023-11-18T12:11:47;101765.09;;;7.97
69785;BMP280;14177;51.520;6.764;2023-11-18T12:14:17;101761.66;;;7.97
69785;BMP280;14177;51.520;6.764;2023-11-18T12:17:05;101756.50;;;7.95
69785;BMP280;14177;51.520;6.764;2023-11-18T12:19:41;101745.28;;;7.93
69785;BMP280;14177;51.520;6.764;2023-11-18T12:22:18;101740.13;;;7.92
69785;BMP280;14177;51.520;6.764;2023-11-18T12:35:26;101695.31;;;7.85
69785;BMP280;14177;51.520;6.764;2023-11-18T12:40:57;101696.16;;;7.84
69785;BMP280;14177;51.520;6.764;2023-11-18T12:43:48;101691.88;;;7.82
69785;BMP280;14177;51.520;6.764;2023-11-18T12:49:04;101669.44;;;7.85
69785;BMP280;14177;51.520;6.764;2023-11-18T12:51:32;101663.41;;;7.85
69785;BMP280;14177;51.520;6.764;2023-11-18T12:54:03;101655.63;;;7.86
69785;BMP280;14177;51.520;6.764;2023-11-18T12:56:34;101637.53;;;7.86
69785;BMP280;14177;51.520;6.764;2023-11-18T12:59:01;101612.53;;;7.87
69785;BMP280;14177;51.520;6.764;2023-11-18T13:01:33;101602.16;;;7.90
69785;BMP280;14177;51.520;6.764;2023-11-18T13:04:03;101591.81;;;7.90
69785;BMP280;14177;51.520;6.764;2023-11-18T13:06:30;101603.88;;;7.91
69785;BMP280;14177;51.520;6.764;2023-11-18T13:08:58;101602.13;;;7.93
69785;BMP280;14177;51.520;6.764;2023-11-18T13:11:25;101589.19;;;7.93
69785;BMP280;14177;51.520;6.764;2023-11-18T13:13:52;101577.09;;;7.93
69785;BMP280;14177;51.520;6.764;2023-11-18T13:16:20;101571.94;;;7.95
69785;BMP280;14177;51.520;6.764;2023-11-18T13:18:48;101551.22;;;7.95
69785;BMP280;14177;51.520;6.764;2023-11-18T13:21:19;101533.97;;;7.97
69785;BMP280;14177;51.520;6.764;2023-11-18T13:23:52;101521.88;;;7.97
69785;BMP280;14177;51.520;6.764;2023-11-18T13:26:21;101517.56;;;7.96
69785;BMP280;14177;51.520;6.764;2023-11-18T13:28:49;101513.22;;;7.98
69785;BMP280;14177;51.520;6.764;2023-11-18T13:31:17;101500.31;;;8.00
69785;BMP280;14177;51.520;6.764;2023-11-18T13:33:47;101508.06;;;7.98
69785;BMP280;14177;51.520;6.764;2023-11-18T13:36:16;101510.66;;;8.00
69785;BMP280;14177;51.520;6.764;2023-11-18T13:38:43;101498.53;;;8.02
69785;BMP280;14177;51.520;6.764;2023-11-18T13:41:10;101477.81;;;8.02
69785;BMP280;14177;51.520;6.764;2023-11-18T13:43:46;101485.59;;;8.02
69785;BMP280;14177;51.520;6.764;2023-11-18T13:46:21;101476.06;;;8.04
69785;BMP280;14177;51.520;6.764;2023-11-18T13:48:48;101489.03;;;8.05
69785;BMP280;14177;51.520;6.764;2023-11-18T13:51:20;101498.50;;;8.05
69785;BMP280;14177;51.520;6.764;2023-11-18T13:53:48;101489.91;;;8.04
69785;BMP280;14177;51.520;6.764;2023-11-18T13:56:18;101489.00;;;8.07
69785;BMP280;14177;51.520;6.764;2023-11-18T13:58:46;101468.28;;;8.07
69785;BMP280;14177;51.520;6.764;2023-11-18T14:01:15;101441.56;;;8.06
69785;BMP280;14177;51.520;6.764;2023-11-18T14:03:43;101437.22;;;8.07
69785;BMP280;14177;51.520;6.764;2023-11-18T14:06:10;101426.00;;;8.08
69785;BMP280;14177;51.520;6.764;2023-11-18T14:08:38;101409.66;;;8.07
69785;BMP280;14177;51.520;6.764;2023-11-18T14:11:06;101407.06;;;8.06
69785;BMP280;14177;51.520;6.764;2023-11-18T14:13:44;101416.53;;;8.07
69785;BMP280;14177;51.520;6.764;2023-11-18T14:16:10;101415.66;;;8.08
69785;BMP280;14177;51.520;6.764;2023-11-18T14:18:39;101399.28;;;8.06
69785;BMP280;14177;51.520;6.764;2023-11-18T14:21:08;101401.03;;;8.05
69785;BMP280;14177;51.520;6.764;2023-11-18T14:23:36;101390.66;;;8.07
69785;BMP280;14177;51.520;6.764;2023-11-18T14:26:05;101398.44;;;8.04
69785;BMP280;14177;51.520;6.764;2023-11-18T14:28:34;101400.19;;;8.02
69785;BMP280;14177;51.520;6.764;2023-11-18T14:31:02;101393.34;;;8.01
69785;BMP280;14177;51.520;6.764;2023-11-18T14:33:34;101385.56;;;7.99
69785;BMP280;14177;51.520;6.764;2023-11-18T14:36:01;101383.91;;;7.97
69785;BMP280;14177;51.520;6.764;2023-11-18T14:38:28;101369.22;;;7.97
69785;BMP280;14177;51.520;6.764;2023-11-18T14:40:55;101363.97;;;8.02
69785;BMP280;14177;51.520;6.764;2023-11-18T14:43:23;101361.41;;;8.00
69785;BMP280;14177;51.520;6.764;2023-11-18T14:45:50;101363.97;;;8.02
69785;BMP280;14177;51.520;6.764;2023-11-18T14:48:17;101376.09;;;8.00